sensor_id;sensor_type;location;lat;lon;timestamp;pressure;altitude;pressure_sealevel;temperature;humidity
46430;BME280;32131;53.454;-6.180;2023-02-01T00:01:21;102273.97;;;4.80;91.31
46430;BME280;32131;53.454;-6.180;2023-02-01T00:03:49;102281.47;;;4.77;91.58
46430;BME280;32131;53.454;-6.180;2023-02-01T00:06:19;102281.34;;;4.76;91.65
46430;BME280;32131;53.454;-6.180;2023-02-01T00:08:47;102272.91;;;4.77;91.91
46430;BME280;32131;53.454;-6.180;2023-02-01T00:11:15;102278.78;;;4.76;91.92
46430;BME280;32131;53.454;-6.180;2023-02-01T00:13:43;102272.03;;;4.76;92.17
46430;BME280;32131;53.454;-6.180;2023-02-01T00:16:13;102256.75;;;4.78;92.07
46430;BME280;32131;53.454;-6.180;2023-02-01T00:18:43;102260.78;;;4.74;92.18
46430;BME280;32131;53.454;-6.180;2023-02-01T00:21:12;102253.13;;;4.74;92.24
46430;BME280;32131;53.454;-6.180;2023-02-01T00:23:41;102276.75;;;4.70;92.50
46430;BME280;32131;53.454;-6.180;2023-02-01T00:26:15;102270.75;;;4.69;92.92
46430;BME280;32131;53.454;-6.180;2023-02-01T00:28:44;102280.56;;;4.77;93.31
46430;BME280;32131;53.454;-6.180;2023-02-01T00:31:12;102276.44;;;4.79;93.55
46430;BME280;32131;53.454;-6.180;2023-02-01T00:33:41;102274.47;;;4.75;93.47
46430;BME280;32131;53.454;-6.180;2023-02-01T00:36:09;102278.63;;;4.72;93.59
46430;BME280;32131;53.454;-6.180;2023-02-01T00:38:38;102276.94;;;4.73;93.79
46430;BME280;32131;53.454;-6.180;2023-02-01T00:41:11;102281.88;;;4.70;93.71
46430;BME280;32131;53.454;-6.180;2023-02-01T00:43:39;102278.00;;;4.77;93.53
46430;BME280;32131;53.454;-6.180;2023-02-01T00:46:07;102273.69;;;4.76;93.57
46430;BME280;32131;53.454;-6.180;2023-02-01T00:48:36;102278.00;;;4.77;93.78
46430;BME280;32131;53.454;-6.180;2023-02-01T00:51:07;102288.25;;;4.77;93.86
46430;BME280;32131;53.454;-6.180;2023-02-01T00:53:35;102282.84;;;4.72;93.60
46430;BME280;32131;53.454;-6.180;2023-02-01T00:56:04;102285.78;;;4.65;93.96
46430;BME280;32131;53.454;-6.180;2023-02-01T00:58:34;102277.41;;;4.67;94.31
46430;BME280;32131;53.454;-6.180;2023-02-01T01:01:04;102267.78;;;4.63;94.44
46430;BME280;32131;53.454;-6.180;2023-02-01T01:03:34;102280.75;;;4.66;94.67
46430;BME280;32131;53.454;-6.180;2023-02-01T01:06:05;102285.72;;;4.63;94.58
46430;BME280;32131;53.454;-6.180;2023-02-01T01:08:33;102278.22;;;4.66;94.77
46430;BME280;32131;53.454;-6.180;2023-02-01T01:11:06;102284.53;;;4.71;94.01
46430;BME280;32131;53.454;-6.180;2023-02-01T01:13:36;102280.97;;;4.69;94.25
46430;BME280;32131;53.454;-6.180;2023-02-01T01:16:05;102281.75;;;4.68;94.30
46430;BME280;32131;53.454;-6.180;2023-02-01T01:18:34;102278.50;;;4.71;94.17
46430;BME280;32131;53.454;-6.180;2023-02-01T01:21:04;102284.44;;;4.70;94.09
46430;BME280;32131;53.454;-6.180;2023-02-01T01:23:33;102278.41;;;4.69;93.85
46430;BME280;32131;53.454;-6.180;2023-02-01T01:26:04;102273.09;;;4.66;93.99
46430;BME280;32131;53.454;-6.180;2023-02-01T01:28:33;102270.75;;;4.69;93.99
46430;BME280;32131;53.454;-6.180;2023-02-01T01:31:03;102299.66;;;4.68;94.09
46430;BME280;32131;53.454;-6.180;2023-02-01T01:33:31;102272.44;;;4.69;94.34
46430;BME280;32131;53.454;-6.180;2023-02-01T01:35:59;102268.19;;;4.69;94.17
46430;BME280;32131;53.454;-6.180;2023-02-01T01:38:27;102268.78;;;4.65;94.54
46430;BME280;32131;53.454;-6.180;2023-02-01T01:40:55;102270.34;;;4.63;94.67
46430;BME280;32131;53.454;-6.180;2023-02-01T01:43:23;102266.03;;;4.62;95.20
46430;BME280;32131;53.454;-6.180;2023-02-01T01:45:51;102261.19;;;4.67;95.38
46430;BME280;32131;53.454;-6.180;2023-02-01T01:48:25;102268.69;;;4.77;95.18
46430;BME280;32131;53.454;-6.180;2023-02-01T01:50:57;102262.09;;;4.81;95.08
46430;BME280;32131;53.454;-6.180;2023-02-01T01:53:33;102260.31;;;4.80;95.54
46430;BME280;32131;53.454;-6.180;2023-02-01T01:56:04;102252.25;;;4.74;95.60
46430;BME280;32131;53.454;-6.180;2023-02-01T01:58:33;102241.03;;;4.71;95.96
46430;BME280;32131;53.454;-6.180;2023-02-01T02:01:01;102229.59;;;4.66;96.33
46430;BME280;32131;53.454;-6.180;2023-02-01T02:03:33;102235.53;;;4.65;96.67
46430;BME280;32131;53.454;-6.180;2023-02-01T02:06:03;102239.44;;;4.60;96.84
46430;BME280;32131;53.454;-6.180;2023-02-01T02:08:34;102229.59;;;4.53;97.04
46430;BME280;32131;53.454;-6.180;2023-02-01T02:11:02;102221.06;;;4.52;97.77
46430;BME280;32131;53.454;-6.180;2023-02-01T02:13:33;102220.16;;;4.52;97.99
46430;BME280;32131;53.454;-6.180;2023-02-01T02:22:25;102223.00;;;4.56;99.12
46430;BME280;32131;53.454;-6.180;2023-02-01T02:28:28;102213.94;;;4.62;98.98
46430;BME280;32131;53.454;-6.180;2023-02-01T02:31:24;102223.41;;;4.63;99.50
46430;BME280;32131;53.454;-6.180;2023-02-01T02:34:05;102213.84;;;4.60;99.41
46430;BME280;32131;53.454;-6.180;2023-02-01T02:36:43;102225.66;;;4.58;99.67
46430;BME280;32131;53.454;-6.180;2023-02-01T02:39:18;102225.56;;;4.56;100.00
46430;BME280;32131;53.454;-6.180;2023-02-01T02:41:56;102219.47;;;4.54;100.00
46430;BME280;32131;53.454;-6.180;2023-02-01T02:45:02;102221.06;;;4.52;100.00
46430;BME280;32131;53.454;-6.180;2023-02-01T02:47:54;102219.97;;;4.49;100.00
46430;BME280;32131;53.454;-6.180;2023-02-01T02:50:27;102225.75;;;4.46;100.00
46430;BME280;32131;53.454;-6.180;2023-02-01T02:53:32;102212.41;;;4.50;100.00
46430;BME280;32131;53.454;-6.180;2023-02-01T02:56:21;102218.22;;;4.48;100.00
46430;BME280;32131;53.454;-6.180;2023-02-01T02:59:08;102208.84;;;4.48;100.00
46430;BME280;32131;53.454;-6.180;2023-02-01T03:01:55;102206.19;;;4.47;100.00
46430;BME280;32131;53.454;-6.180;2023-02-01T03:04:41;102207.56;;;4.41;100.00
46430;BME280;32131;53.454;-6.180;2023-02-01T03:07:49;102197.31;;;4.41;100.00
46430;BME280;32131;53.454;-6.180;2023-02-01T03:10:26;102194.28;;;4.47;100.00
46430;BME280;32131;53.454;-6.180;2023-02-01T03:13:01;102201.88;;;4.46;100.00
46430;BME280;32131;53.454;-6.180;2023-02-01T03:15:36;102192.41;;;4.45;100.00
46430;BME280;32131;53.454;-6.180;2023-02-01T03:18:11;102206.69;;;4.41;100.00
46430;BME280;32131;53.454;-6.180;2023-02-01T03:20:43;102201.56;;;4.41;100.00
46430;BME280;32131;53.454;-6.180;2023-02-01T03:23:16;102203.25;;;4.40;100.00
46430;BME280;32131;53.454;-6.180;2023-02-01T03:25:47;102187.78;;;4.39;100.00
46430;BME280;32131;53.454;-6.180;2023-02-01T03:28:17;102183.75;;;4.43;100.00
46430;BME280;32131;53.454;-6.180;2023-02-01T03:30:48;102187.31;;;4.45;100.00
46430;BME280;32131;53.454;-6.180;2023-02-01T03:33:20;102195.75;;;4.44;100.00
46430;BME280;32131;53.454;-6.180;2023-02-01T03:35:55;102189.94;;;4.46;100.00
46430;BME280;32131;53.454;-6.180;2023-02-01T03:38:30;102202.84;;;4.48;100.00
46430;BME280;32131;53.454;-6.180;2023-02-01T03:41:04;102197.84;;;4.49;100.00
46430;BME280;32131;53.454;-6.180;2023-02-01T03:43:43;102204.50;;;4.47;100.00
46430;BME280;32131;53.454;-6.180;2023-02-01T03:46:21;102185.81;;;4.48;100.00
46430;BME280;32131;53.454;-6.180;2023-02-01T03:48:52;102181.63;;;4.49;100.00
46430;BME280;32131;53.454;-6.180;2023-02-01T03:51:23;102179.06;;;4.49;100.00
46430;BME280;32131;53.454;-6.180;2023-02-01T03:53:54;102161.03;;;4.47;100.00
46430;BME280;32131;53.454;-6.180;2023-02-01T03:56:25;102164.50;;;4.48;100.00
46430;BME280;32131;53.454;-6.180;2023-02-01T03:58:55;102159.38;;;4.48;100.00
46430;BME280;32131;53.454;-6.180;2023-02-01T04:01:27;102153.34;;;4.47;100.00
46430;BME280;32131;53.454;-6.180;2023-02-01T04:03:56;102151.88;;;4.51;100.00
46430;BME280;32131;53.454;-6.180;2023-02-01T04:06:25;102144.19;;;4.51;100.00
46430;BME280;32131;53.454;-6.180;2023-02-01T04:08:54;102146.25;;;4.56;100.00
46430;BME280;32131;53.454;-6.180;2023-02-01T04:11:23;102136.41;;;4.63;100.00
46430;BME280;32131;53.454;-6.180;2023-02-01T04:13:51;102127.84;;;4.62;100.00
46430;BME280;32131;53.454;-6.180;2023-02-01T04:16:19;102141.53;;;4.63;100.00
46430;BME280;32131;53.454;-6.180;2023-02-01T04:18:47;102126.16;;;4.63;100.00
46430;BME280;32131;53.454;-6.180;2023-02-01T04:21:15;102131.19;;;4.61;100.00
46430;BME280;32131;53.454;-6.180;2023-02-01T04:23:43;102124.81;;;4.68;100.00
46430;BME280;32131;53.454;-6.180;2023-02-01T04:26:12;102126.66;;;4.70;100.00
46430;BME280;32131;53.454;-6.180;2023-02-01T04:28:42;102124.31;;;4.74;100.00
46430;BME280;32131;53.454;-6.180;2023-02-01T04:31:10;102121.03;;;4.76;100.00
46430;BME280;32131;53.454;-6.180;2023-02-01T04:33:38;102128.00;;;4.79;100.00
46430;BME280;32131;53.454;-6.180;2023-02-01T04:36:06;102136.47;;;4.78;100.00
46430;BME280;32131;53.454;-6.180;2023-02-01T04:38:34;102148.69;;;4.82;100.00
46430;BME280;32131;53.454;-6.180;2023-02-01T04:41:02;102137.63;;;4.83;100.00
46430;BME280;32131;53.454;-6.180;2023-02-01T04:43:32;102133.41;;;4.83;100.00
46430;BME280;32131;53.454;-6.180;2023-02-01T04:46:00;102148.97;;;4.86;100.00
46430;BME280;32131;53.454;-6.180;2023-02-01T04:48:28;102145.59;;;4.87;100.00
46430;BME280;32131;53.454;-6.180;2023-02-01T04:50:56;102156.66;;;4.86;100.00
46430;BME280;32131;53.454;-6.180;2023-02-01T04:53:24;102153.28;;;4.87;100.00
46430;BME280;32131;53.454;-6.180;2023-02-01T04:55:53;102151.00;;;4.92;99.72
46430;BME280;32131;53.454;-6.180;2023-02-01T04:58:21;102147.47;;;4.90;99.38
46430;BME280;32131;53.454;-6.180;2023-02-01T05:00:51;102153.28;;;4.87;99.28
46430;BME280;32131;53.454;-6.180;2023-02-01T05:03:19;102150.63;;;4.86;99.57
46430;BME280;32131;53.454;-6.180;2023-02-01T05:05:47;102146.56;;;4.90;99.17
46430;BME280;32131;53.454;-6.180;2023-02-01T05:08:15;102159.88;;;4.84;99.28
46430;BME280;32131;53.454;-6.180;2023-02-01T05:10:44;102162.44;;;4.84;99.46
46430;BME280;32131;53.454;-6.180;2023-02-01T05:13:12;102158.38;;;4.87;98.92
46430;BME280;32131;53.454;-6.180;2023-02-01T05:15:59;102169.53;;;4.88;98.76
46430;BME280;32131;53.454;-6.180;2023-02-01T05:18:27;102165.91;;;4.84;98.78
46430;BME280;32131;53.454;-6.180;2023-02-01T05:20:56;102171.09;;;4.86;99.07
46430;BME280;32131;53.454;-6.180;2023-02-01T05:23:24;102184.88;;;4.88;98.76
46430;BME280;32131;53.454;-6.180;2023-02-01T05:25:52;102173.88;;;4.89;98.77
46430;BME280;32131;53.454;-6.180;2023-02-01T05:28:25;102187.44;;;4.88;98.83
46430;BME280;32131;53.454;-6.180;2023-02-01T05:30:53;102187.38;;;4.86;98.51
46430;BME280;32131;53.454;-6.180;2023-02-01T05:33:23;102195.91;;;4.87;98.55
46430;BME280;32131;53.454;-6.180;2023-02-01T05:35:51;102187.25;;;4.85;98.63
46430;BME280;32131;53.454;-6.180;2023-02-01T05:38:19;102188.03;;;4.84;98.86
46430;BME280;32131;53.454;-6.180;2023-02-01T05:40:47;102178.69;;;4.84;98.71
46430;BME280;32131;53.454;-6.180;2023-02-01T05:43:16;102170.81;;;4.81;98.85
46430;BME280;32131;53.454;-6.180;2023-02-01T05:45:44;102176.84;;;4.82;98.97
46430;BME280;32131;53.454;-6.180;2023-02-01T05:48:12;102179.19;;;4.79;98.91
46430;BME280;32131;53.454;-6.180;2023-02-01T05:50:42;102184.09;;;4.76;99.09
46430;BME280;32131;53.454;-6.180;2023-02-01T05:53:11;102181.66;;;4.77;99.21
46430;BME280;32131;53.454;-6.180;2023-02-01T05:55:39;102173.09;;;4.77;99.21
46430;BME280;32131;53.454;-6.180;2023-02-01T05:58:07;102170.34;;;4.74;99.22
46430;BME280;32131;53.454;-6.180;2023-02-01T06:00:35;102170.53;;;4.77;99.42
46430;BME280;32131;53.454;-6.180;2023-02-01T06:03:03;102166.41;;;4.79;99.70
46430;BME280;32131;53.454;-6.180;2023-02-01T06:05:32;102165.41;;;4.77;99.38
46430;BME280;32131;53.454;-6.180;2023-02-01T06:08:01;102174.06;;;4.79;99.59
46430;BME280;32131;53.454;-6.180;2023-02-01T06:10:29;102181.75;;;4.79;99.79
46430;BME280;32131;53.454;-6.180;2023-02-01T06:12:57;102170.91;;;4.83;99.71
46430;BME280;32131;53.454;-6.180;2023-02-01T06:15:25;102167.56;;;4.84;99.60
46430;BME280;32131;53.454;-6.180;2023-02-01T06:17:54;102170.91;;;4.83;99.62
46430;BME280;32131;53.454;-6.180;2023-02-01T06:20:22;102165.19;;;4.87;99.78
46430;BME280;32131;53.454;-6.180;2023-02-01T06:22:50;102167.84;;;4.88;99.65
46430;BME280;32131;53.454;-6.180;2023-02-01T06:25:20;102163.00;;;4.93;99.56
46430;BME280;32131;53.454;-6.180;2023-02-01T06:27:48;102164.78;;;4.94;99.52
46430;BME280;32131;53.454;-6.180;2023-02-01T06:30:17;102158.88;;;4.95;99.87
46430;BME280;32131;53.454;-6.180;2023-02-01T06:32:50;102158.38;;;5.01;99.56
46430;BME280;32131;53.454;-6.180;2023-02-01T06:35:20;102155.72;;;4.99;99.62
46430;BME280;32131;53.454;-6.180;2023-02-01T06:37:48;102157.38;;;4.99;99.75
46430;BME280;32131;53.454;-6.180;2023-02-01T06:40:16;102168.88;;;5.06;99.92
46430;BME280;32131;53.454;-6.180;2023-02-01T06:42:48;102162.00;;;5.04;99.70
46430;BME280;32131;53.454;-6.180;2023-02-01T06:45:16;102168.78;;;5.04;99.90
46430;BME280;32131;53.454;-6.180;2023-02-01T06:47:44;102170.47;;;5.03;100.00
46430;BME280;32131;53.454;-6.180;2023-02-01T06:50:12;102176.38;;;5.02;100.00
46430;BME280;32131;53.454;-6.180;2023-02-01T06:52:40;102176.66;;;5.07;100.00
46430;BME280;32131;53.454;-6.180;2023-02-01T06:55:09;102177.28;;;5.03;100.00
46430;BME280;32131;53.454;-6.180;2023-02-01T06:57:37;102178.16;;;5.03;100.00
46430;BME280;32131;53.454;-6.180;2023-02-01T07:00:08;102182.09;;;4.98;100.00
46430;BME280;32131;53.454;-6.180;2023-02-01T07:02:36;102176.19;;;4.99;100.00
46430;BME280;32131;53.454;-6.180;2023-02-01T07:05:05;102178.94;;;5.02;100.00
46430;BME280;32131;53.454;-6.180;2023-02-01T07:07:33;102176.28;;;5.01;100.00
46430;BME280;32131;53.454;-6.180;2023-02-01T07:10:02;102175.59;;;5.03;100.00
46430;BME280;32131;53.454;-6.180;2023-02-01T07:12:30;102175.94;;;5.10;100.00
46430;BME280;32131;53.454;-6.180;2023-02-01T07:14:58;102174.56;;;5.15;100.00
46430;BME280;32131;53.454;-6.180;2023-02-01T07:17:29;102183.81;;;5.13;100.00
46430;BME280;32131;53.454;-6.180;2023-02-01T07:19:58;102194.28;;;5.16;100.00
46430;BME280;32131;53.454;-6.180;2023-02-01T07:22:27;102182.41;;;5.18;100.00
46430;BME280;32131;53.454;-6.180;2023-02-01T07:24:55;102187.53;;;5.18;100.00
46430;BME280;32131;53.454;-6.180;2023-02-01T07:27:24;102192.66;;;5.18;100.00
46430;BME280;32131;53.454;-6.180;2023-02-01T07:29:52;102207.88;;;5.15;100.00
46430;BME280;32131;53.454;-6.180;2023-02-01T07:32:23;102218.00;;;5.13;100.00
46430;BME280;32131;53.454;-6.180;2023-02-01T07:34:53;102212.78;;;5.12;100.00
46430;BME280;32131;53.454;-6.180;2023-02-01T07:37:21;102211.78;;;5.10;100.00
46430;BME280;32131;53.454;-6.180;2023-02-01T07:39:50;102217.81;;;5.10;100.00
46430;BME280;32131;53.454;-6.180;2023-02-01T07:42:19;102209.94;;;5.07;100.00
46430;BME280;32131;53.454;-6.180;2023-02-01T07:44:47;102212.50;;;5.07;100.00
46430;BME280;32131;53.454;-6.180;2023-02-01T07:47:16;102223.66;;;5.08;100.00
46430;BME280;32131;53.454;-6.180;2023-02-01T07:49:44;102223.03;;;5.12;100.00
46430;BME280;32131;53.454;-6.180;2023-02-01T07:52:14;102229.31;;;5.17;100.00
46430;BME280;32131;53.454;-6.180;2023-02-01T07:54:43;102232.84;;;5.19;100.00
46430;BME280;32131;53.454;-6.180;2023-02-01T07:57:11;102224.59;;;5.23;100.00
46430;BME280;32131;53.454;-6.180;2023-02-01T07:59:40;102233.41;;;5.28;100.00
46430;BME280;32131;53.454;-6.180;2023-02-01T08:02:28;102243.66;;;5.28;100.00
46430;BME280;32131;53.454;-6.180;2023-02-01T08:04:56;102241.88;;;5.27;100.00
46430;BME280;32131;53.454;-6.180;2023-02-01T08:07:29;102235.91;;;5.27;100.00
46430;BME280;32131;53.454;-6.180;2023-02-01T08:09:57;102250.56;;;5.29;100.00
46430;BME280;32131;53.454;-6.180;2023-02-01T08:12:26;102242.38;;;5.35;100.00
46430;BME280;32131;53.454;-6.180;2023-02-01T08:14:55;102271.69;;;5.40;100.00
46430;BME280;32131;53.454;-6.180;2023-02-01T08:17:23;102257.41;;;5.44;100.00
46430;BME280;32131;53.454;-6.180;2023-02-01T08:19:51;102260.25;;;5.48;100.00
46430;BME280;32131;53.454;-6.180;2023-02-01T08:22:19;102263.88;;;5.52;100.00
46430;BME280;32131;53.454;-6.180;2023-02-01T08:24:49;102266.28;;;5.49;100.00
46430;BME280;32131;53.454;-6.180;2023-02-01T08:27:19;102265.66;;;5.53;100.00
46430;BME280;32131;53.454;-6.180;2023-02-01T08:29:47;102276.69;;;5.52;100.00
46430;BME280;32131;53.454;-6.180;2023-02-01T08:32:20;102274.31;;;5.55;100.00
46430;BME280;32131;53.454;-6.180;2023-02-01T08:34:50;102267.63;;;5.57;100.00
46430;BME280;32131;53.454;-6.180;2023-02-01T08:37:18;102265.41;;;5.63;100.00
46430;BME280;32131;53.454;-6.180;2023-02-01T08:39:46;102269.75;;;5.79;100.00
46430;BME280;32131;53.454;-6.180;2023-02-01T08:42:20;102269.97;;;5.97;100.00
46430;BME280;32131;53.454;-6.180;2023-02-01T08:45:07;102278.59;;;6.13;99.88
46430;BME280;32131;53.454;-6.180;2023-02-01T08:47:36;102271.44;;;6.22;99.14
46430;BME280;32131;53.454;-6.180;2023-02-01T08:50:05;102277.38;;;6.36;98.59
46430;BME280;32131;53.454;-6.180;2023-02-01T08:52:33;102282.94;;;6.44;98.28
46430;BME280;32131;53.454;-6.180;2023-02-01T08:55:03;102287.00;;;6.55;97.82
46430;BME280;32131;53.454;-6.180;2023-02-01T08:57:34;102278.13;;;6.65;96.97
46430;BME280;32131;53.454;-6.180;2023-02-01T09:00:05;102273.44;;;6.73;96.44
46430;BME280;32131;53.454;-6.180;2023-02-01T09:02:33;102275.53;;;6.80;96.17
46430;BME280;32131;53.454;-6.180;2023-02-01T09:05:01;102271.72;;;6.88;95.62
46430;BME280;32131;53.454;-6.180;2023-02-01T09:07:31;102270.44;;;6.97;95.14
46430;BME280;32131;53.454;-6.180;2023-02-01T09:09:59;102282.81;;;7.04;94.80
46430;BME280;32131;53.454;-6.180;2023-02-01T09:12:29;102280.31;;;7.05;94.55
46430;BME280;32131;53.454;-6.180;2023-02-01T09:14:59;102292.56;;;7.10;93.87
46430;BME280;32131;53.454;-6.180;2023-02-01T09:17:28;102287.41;;;7.10;93.84
46430;BME280;32131;53.454;-6.180;2023-02-01T09:19:56;102282.28;;;7.10;93.80
46430;BME280;32131;53.454;-6.180;2023-02-01T09:22:25;102282.81;;;7.04;93.63
46430;BME280;32131;53.454;-6.180;2023-02-01T09:24:53;102285.63;;;7.08;93.53
46430;BME280;32131;53.454;-6.180;2023-02-01T09:27:29;102296.50;;;7.19;93.01
46430;BME280;32131;53.454;-6.180;2023-02-01T09:29:58;102294.09;;;7.22;93.01
46430;BME280;32131;53.454;-6.180;2023-02-01T09:32:27;102296.66;;;7.22;92.69
46430;BME280;32131;53.454;-6.180;2023-02-01T09:34:55;102288.16;;;7.23;92.31
46430;BME280;32131;53.454;-6.180;2023-02-01T09:37:23;102298.03;;;7.32;91.85
46430;BME280;32131;53.454;-6.180;2023-02-01T09:39:51;102290.44;;;7.50;91.28
46430;BME280;32131;53.454;-6.180;2023-02-01T09:42:33;102288.19;;;7.73;90.24
46430;BME280;32131;53.454;-6.180;2023-02-01T09:45:17;102299.75;;;7.81;89.77
46430;BME280;32131;53.454;-6.180;2023-02-01T09:47:53;102294.44;;;7.78;89.22
46430;BME280;32131;53.454;-6.180;2023-02-01T09:50:28;102301.59;;;7.84;88.95
46430;BME280;32131;53.454;-6.180;2023-02-01T09:53:02;102297.97;;;7.97;88.74
46430;BME280;32131;53.454;-6.180;2023-02-01T09:55:37;102297.75;;;8.10;87.98
46430;BME280;32131;53.454;-6.180;2023-02-01T09:58:11;102303.38;;;8.19;87.54
46430;BME280;32131;53.454;-6.180;2023-02-01T10:00:50;102292.75;;;8.30;87.11
46430;BME280;32131;53.454;-6.180;2023-02-01T10:03:19;102295.63;;;8.36;86.44
46430;BME280;32131;53.454;-6.180;2023-02-01T10:06:07;102294.00;;;8.38;86.77
46430;BME280;32131;53.454;-6.180;2023-02-01T10:09:00;102289.66;;;8.37;87.21
46430;BME280;32131;53.454;-6.180;2023-02-01T10:11:37;102294.69;;;8.34;87.40
46430;BME280;32131;53.454;-6.180;2023-02-01T10:14:38;102302.16;;;8.29;88.00
46430;BME280;32131;53.454;-6.180;2023-02-01T10:17:20;102291.13;;;8.32;87.77
46430;BME280;32131;53.454;-6.180;2023-02-01T10:19:58;102297.16;;;8.32;87.62
46430;BME280;32131;53.454;-6.180;2023-02-01T10:22:40;102293.78;;;8.33;87.99
46430;BME280;32131;53.454;-6.180;2023-02-01T10:25:32;102301.16;;;8.44;87.33
46430;BME280;32131;53.454;-6.180;2023-02-01T10:28:03;102287.88;;;8.53;86.91
46430;BME280;32131;53.454;-6.180;2023-02-01T10:30:39;102291.69;;;8.61;86.64
46430;BME280;32131;53.454;-6.180;2023-02-01T10:33:15;102283.53;;;8.70;86.09
46430;BME280;32131;53.454;-6.180;2023-02-01T10:35:45;102282.44;;;8.83;85.72
46430;BME280;32131;53.454;-6.180;2023-02-01T10:38:22;102285.13;;;8.86;85.13
46430;BME280;32131;53.454;-6.180;2023-02-01T10:40:53;102277.06;;;8.78;85.12
46430;BME280;32131;53.454;-6.180;2023-02-01T10:43:24;102288.75;;;8.71;85.36
46430;BME280;32131;53.454;-6.180;2023-02-01T10:45:52;102292.31;;;8.73;85.72
46430;BME280;32131;53.454;-6.180;2023-02-01T10:48:22;102305.19;;;8.73;85.42
46430;BME280;32131;53.454;-6.180;2023-02-01T10:50:51;102300.19;;;8.76;85.15
46430;BME280;32131;53.454;-6.180;2023-02-01T10:53:24;102295.16;;;8.79;84.81
46430;BME280;32131;53.454;-6.180;2023-02-01T10:55:54;102301.34;;;8.83;84.62
46430;BME280;32131;53.454;-6.180;2023-02-01T10:58:27;102302.38;;;8.87;84.73
46430;BME280;32131;53.454;-6.180;2023-02-01T11:00:58;102319.81;;;8.92;84.64
46430;BME280;32131;53.454;-6.180;2023-02-01T11:03:36;102329.59;;;9.00;84.28
46430;BME280;32131;53.454;-6.180;2023-02-01T11:06:17;102324.00;;;9.08;84.11
46430;BME280;32131;53.454;-6.180;2023-02-01T11:08:49;102328.25;;;9.26;83.52
46430;BME280;32131;53.454;-6.180;2023-02-01T11:11:18;102329.41;;;9.33;82.91
46430;BME280;32131;53.454;-6.180;2023-02-01T11:13:53;102322.94;;;9.23;82.76
46430;BME280;32131;53.454;-6.180;2023-02-01T11:16:29;102321.34;;;9.25;83.23
46430;BME280;32131;53.454;-6.180;2023-02-01T11:18:59;102319.97;;;9.53;82.65
46430;BME280;32131;53.454;-6.180;2023-02-01T11:21:27;102324.16;;;9.69;81.66
46430;BME280;32131;53.454;-6.180;2023-02-01T11:24:00;102314.81;;;9.53;81.33
46430;BME280;32131;53.454;-6.180;2023-02-01T11:26:29;102331.09;;;9.32;82.01
46430;BME280;32131;53.454;-6.180;2023-02-01T11:29:00;102310.34;;;9.29;82.53
46430;BME280;32131;53.454;-6.180;2023-02-01T11:31:29;102309.63;;;9.51;82.02
46430;BME280;32131;53.454;-6.180;2023-02-01T11:34:05;102313.97;;;9.72;81.39
46430;BME280;32131;53.454;-6.180;2023-02-01T11:36:36;102306.84;;;9.86;80.67
46430;BME280;32131;53.454;-6.180;2023-02-01T11:39:15;102304.09;;;10.02;80.14
46430;BME280;32131;53.454;-6.180;2023-02-01T11:41:56;102297.63;;;10.12;78.98
46430;BME280;32131;53.454;-6.180;2023-02-01T11:44:30;102290.13;;;10.18;78.62
46430;BME280;32131;53.454;-6.180;2023-02-01T11:47:18;102303.09;;;10.20;77.86
46430;BME280;32131;53.454;-6.180;2023-02-01T11:49:49;102305.06;;;10.26;76.72
46430;BME280;32131;53.454;-6.180;2023-02-01T11:52:27;102281.34;;;10.34;76.37
46430;BME280;32131;53.454;-6.180;2023-02-01T11:58:06;102287.97;;;10.49;75.84
46430;BME280;32131;53.454;-6.180;2023-02-01T12:00:57;102288.28;;;10.57;75.32
46430;BME280;32131;53.454;-6.180;2023-02-01T12:06:47;102278.00;;;10.58;75.52
46430;BME280;32131;53.454;-6.180;2023-02-01T12:09:27;102273.44;;;10.51;75.75
46430;BME280;32131;53.454;-6.180;2023-02-01T12:12:03;102273.28;;;10.48;75.90
46430;BME280;32131;53.454;-6.180;2023-02-01T12:14:47;102275.06;;;10.49;75.75
46430;BME280;32131;53.454;-6.180;2023-02-01T12:17:48;102277.97;;;10.57;75.71
46430;BME280;32131;53.454;-6.180;2023-02-01T12:20:31;102265.88;;;10.56;75.61
46430;BME280;32131;53.454;-6.180;2023-02-01T12:23:14;102275.56;;;10.61;75.54
46430;BME280;32131;53.454;-6.180;2023-02-01T12:26:01;102272.09;;;10.61;75.36
46430;BME280;32131;53.454;-6.180;2023-02-01T12:29:15;102258.53;;;10.66;75.29
46430;BME280;32131;53.454;-6.180;2023-02-01T12:31:54;102267.22;;;10.68;75.05
46430;BME280;32131;53.454;-6.180;2023-02-01T12:34:45;102273.09;;;10.64;74.88
46430;BME280;32131;53.454;-6.180;2023-02-01T12:37:24;102257.13;;;10.75;75.18
46430;BME280;32131;53.454;-6.180;2023-02-01T12:40:00;102253.81;;;10.79;74.58
46430;BME280;32131;53.454;-6.180;2023-02-01T12:42:36;102248.75;;;10.80;73.95
46430;BME280;32131;53.454;-6.180;2023-02-01T12:45:15;102248.78;;;10.82;73.79
46430;BME280;32131;53.454;-6.180;2023-02-01T12:47:50;102249.91;;;10.89;73.48
46430;BME280;32131;53.454;-6.180;2023-02-01T12:50:23;102248.56;;;10.98;72.91
46430;BME280;32131;53.454;-6.180;2023-02-01T12:52:55;102256.25;;;10.97;72.28
46430;BME280;32131;53.454;-6.180;2023-02-01T12:55:34;102254.84;;;11.05;72.76
46430;BME280;32131;53.454;-6.180;2023-02-01T12:58:11;102261.19;;;11.13;72.38
46430;BME280;32131;53.454;-6.180;2023-02-01T13:00:44;102266.31;;;11.12;71.92
46430;BME280;32131;53.454;-6.180;2023-02-01T13:03:23;102261.22;;;11.15;71.65
46430;BME280;32131;53.454;-6.180;2023-02-01T13:05:58;102262.03;;;11.14;71.45
46430;BME280;32131;53.454;-6.180;2023-02-01T13:08:36;102264.38;;;11.06;71.75
46430;BME280;32131;53.454;-6.180;2023-02-01T13:11:13;102259.25;;;11.08;71.86
46430;BME280;32131;53.454;-6.180;2023-02-01T13:13:55;102269.88;;;11.15;71.84
46430;BME280;32131;53.454;-6.180;2023-02-01T13:16:29;102265.06;;;11.25;71.41
46430;BME280;32131;53.454;-6.180;2023-02-01T13:19:05;102263.50;;;11.30;71.33
46430;BME280;32131;53.454;-6.180;2023-02-01T13:21:39;102273.97;;;11.33;71.10
46430;BME280;32131;53.454;-6.180;2023-02-01T13:24:31;102266.16;;;11.31;71.42
46430;BME280;32131;53.454;-6.180;2023-02-01T13:27:02;102259.16;;;11.29;71.49
46430;BME280;32131;53.454;-6.180;2023-02-01T13:29:45;102273.03;;;11.31;71.43